Terminal Aerodrome Forecast
Issued by NWS

Home | Current Version | Previous Version | Text Only | Print | Product List | Glossary On
Versions: 1 2 3 4 5 6 7 8 9 10 11 12 13 14 15 16 17 18 19 20 21 22 23 24
000
FTUS41 KRLX 262300
TAFCKB
TAF
KCKB 262334Z 2700/2724 00000KT 2SM BR OVC005
      TEMPO 2700/2703 1SM -SNDZ BR
     FM270300 VRB03KT 4SM BR OVC008
     FM271300 27006KT P6SM OVC015
     FM271800 29008KT 6SM -SHSN OVC022=

USA.gov is the U.S. government's official web portal to all federal, state and local government web resources and services.